Time;durP1;ratioP1;P1;durP2;ratioP2;P2;SDS_P1;SDS_P2;PMS_P1;PMS_P2;Temp;Humidity;BMP_temperature;BMP_pressure;BME280_temperature;BME280_humidity;BME280_pressure;Samples;Min_cycle;Max_cycle;Signal;HPM_P1;HPM_P2
2021/01/15 00:00:54;;;;;;;;;78.50;63.25;;;;;1.27;72.56;100523.88;5144891;27;9592;-74
2021/01/15 00:03:50;;;;;;;;;98.25;76.50;;;;;1.21;71.77;100525.78;5143506;27;8843;-74
2021/01/15 00:06:32;;;;;;;;;107.50;88.50;;;;;1.04;71.90;100525.25;5145305;27;8829;-74
2021/01/15 00:09:27;;;;;;;;;114.50;98.00;;;;;0.96;72.80;100518.44;5141563;27;8828;-74
2021/01/15 00:11:55;;;;;;;;;126.25;105.00;;;;;1.03;72.16;100524.44;5144156;27;8827;-73
2021/01/15 00:14:50;;;;;;;;;117.00;103.25;;;;;1.11;72.33;100523.06;5127835;27;8857;-74
2021/01/15 00:17:46;;;;;;;;;108.50;90.00;;;;;0.94;71.68;100519.78;5143112;27;8938;-74
2021/01/15 00:20:41;;;;;;;;;106.50;85.50;;;;;0.92;72.50;100521.94;5143747;27;8821;-74
2021/01/15 00:23:37;;;;;;;;;101.75;85.75;;;;;0.83;71.69;100519.75;5135391;27;8838;-75
2021/01/15 00:26:34;;;;;;;;;124.75;111.75;;;;;0.74;71.91;100526.84;5131182;27;8817;-75
2021/01/15 00:29:02;;;;;;;;;110.50;98.25;;;;;0.68;72.56;100532.53;5149395;27;8824;-75
2021/01/15 00:31:57;;;;;;;;;143.25;129.25;;;;;0.78;72.59;100525.22;5144847;27;8840;-75
2021/01/15 00:34:53;;;;;;;;;154.75;122.75;;;;;0.74;72.43;100518.66;5135399;27;8909;-74
2021/01/15 00:37:49;;;;;;;;;144.75;115.00;;;;;0.64;72.01;100526.81;5145388;27;8875;-75
2021/01/15 00:40:17;;;;;;;;;144.25;127.00;;;;;0.60;72.02;100525.72;5136132;27;8839;-74
2021/01/15 00:43:13;;;;;;;;;147.50;125.25;;;;;0.57;72.35;100520.00;5148091;27;8827;-74
2021/01/15 00:46:31;;;;;;;;;148.50;119.25;;;;;0.21;72.03;100526.13;5132352;27;9538;-74
2021/01/15 00:49:27;;;;;;;;;146.00;120.50;;;;;0.16;73.62;100514.44;5141985;27;8855;-75
2021/01/15 00:52:22;;;;;;;;;130.25;113.00;;;;;0.12;73.30;100525.00;5148537;27;8817;-75
2021/01/15 00:55:18;;;;;;;;;113.25;81.75;;;;;0.20;73.37;100519.06;5144049;27;8831;-75
2021/01/15 00:58:14;;;;;;;;;152.75;118.50;;;;;0.23;72.74;100515.81;5146261;27;8824;-74
2021/01/15 01:01:12;;;;;;;;;131.00;114.00;;;;;0.19;73.05;100525.59;5148588;27;8815;-75
2021/01/15 01:04:07;;;;;;;;;139.50;110.50;;;;;0.16;72.71;100523.41;5141812;27;8848;-75
2021/01/15 01:07:03;;;;;;;;;147.50;119.00;;;;;0.04;72.51;100522.00;5146307;27;8835;-75
2021/01/15 01:09:59;;;;;;;;;67.75;32.75;;;;;0.08;72.45;100523.94;5146050;27;8827;-75
2021/01/15 01:12:54;;;;;;;;;125.00;103.75;;;;;-0.01;73.35;100526.31;5145629;27;9654;-75
2021/01/15 01:15:50;;;;;;;;;121.50;102.25;;;;;-0.02;72.84;100524.66;5147389;27;8809;-75
2021/01/15 01:18:18;;;;;;;;;110.75;79.50;;;;;0.09;72.67;100530.19;5128644;27;8891;-75
2021/01/15 01:21:14;;;;;;;;;124.50;105.00;;;;;0.02;72.91;100527.69;5146865;27;8829;-75
2021/01/15 01:24:09;;;;;;;;;133.75;104.75;;;;;0.07;72.41;100522.25;5147162;27;8839;-76
2021/01/15 01:27:05;;;;;;;;;136.50;109.00;;;;;0.05;72.22;100527.16;5146932;27;8837;-75
2021/01/15 01:30:01;;;;;;;;;127.25;100.00;;;;;-0.11;72.41;100522.72;5140829;27;8879;-75
2021/01/15 01:32:57;;;;;;;;;116.50;87.75;;;;;-0.32;73.65;100527.22;5147451;27;8823;-76
2021/01/15 01:35:39;;;;;;;;;107.75;87.00;;;;;-0.22;73.60;100531.94;5124361;27;8823;-75
2021/01/15 01:38:35;;;;;;;;;103.50;79.50;;;;;-0.16;73.06;100530.84;5147127;27;8853;-75
2021/01/15 01:41:30;;;;;;;;;87.75;63.25;;;;;-0.25;73.29;100540.59;5144334;27;8871;-76
2021/01/15 01:43:58;;;;;;;;;93.00;74.50;;;;;-0.20;73.32;100543.34;5133417;27;8943;-76
2021/01/15 01:46:47;;;;;;;;;85.25;69.25;;;;;-0.15;73.23;100546.09;5129724;27;8885;-76
2021/01/15 01:49:43;;;;;;;;;92.00;71.25;;;;;-0.15;73.35;100554.25;5134493;27;8920;-75
2021/01/15 01:52:38;;;;;;;;;87.25;69.00;;;;;-0.14;73.93;100553.16;5131262;27;8808;-76
2021/01/15 01:55:34;;;;;;;;;92.25;72.00;;;;;0.02;73.48;100551.34;5129719;27;8857;-76
2021/01/15 01:58:31;;;;;;;;;80.25;65.00;;;;;-0.03;73.44;100543.97;5145451;27;9601;-76
2021/01/15 02:01:27;;;;;;;;;91.00;67.00;;;;;-0.06;74.13;100545.34;5133158;27;8851;-76
2021/01/15 02:04:12;;;;;;;;;84.50;64.50;;;;;-0.10;74.89;100540.69;5129794;27;8853;-76
2021/01/15 02:07:08;;;;;;;;;86.00;68.00;;;;;-0.17;75.05;100548.25;5132575;27;8901;-76
2021/01/15 02:10:08;;;;;;;;;74.50;60.25;;;;;-0.21;75.58;100552.59;5136875;27;8933;-76
2021/01/15 02:13:39;;;;;;;;;80.25;61.75;;;;;-0.15;75.43;100562.41;5141868;27;8833;-75
2021/01/15 02:16:12;;;;;;;;;84.75;66.00;;;;;-0.05;75.78;100562.47;5120661;27;8871;-75
2021/01/15 02:19:11;;;;;;;;;63.25;54.25;;;;;-0.10;75.10;100567.84;5131498;27;8897;-76
2021/01/15 02:22:22;;;;;;;;;75.50;62.00;;;;;-0.08;75.08;100568.41;5136001;27;8818;-76
2021/01/15 02:25:21;;;;;;;;;39.00;32.00;;;;;-0.07;75.20;100567.34;5134327;27;8866;-76
2021/01/15 02:28:42;;;;;;;;;71.75;58.00;;;;;-0.22;75.18;100573.50;5143509;27;8879;-76
2021/01/15 02:32:10;;;;;;;;;83.00;62.00;;;;;-0.21;75.13;100577.88;5145220;27;8848;-76
2021/01/15 02:35:23;;;;;;;;;70.75;54.75;;;;;-0.20;75.15;100571.34;5109793;27;8947;-76
2021/01/15 02:38:27;;;;;;;;;67.25;55.00;;;;;-0.34;75.05;100581.03;5145076;27;8844;-76
2021/01/15 02:41:28;;;;;;;;;69.00;54.75;;;;;-0.28;74.70;100585.41;5143374;27;8919;-76
2021/01/15 02:44:17;;;;;;;;;67.67;57.00;;;;;-0.36;75.00;100594.06;5145770;27;9541;-76
2021/01/15 02:47:18;;;;;;;;;54.33;47.33;;;;;-0.28;75.43;100591.69;5134600;27;8814;-76
2021/01/15 02:50:11;;;;;;;;;53.67;47.00;;;;;-0.25;75.95;100586.78;5131436;27;9586;-76
2021/01/15 02:53:06;;;;;;;;;63.33;47.67;;;;;-0.22;75.93;100591.72;5130196;27;8818;-76
2021/01/15 02:56:02;;;;;;;;;60.33;52.00;;;;;-0.32;76.10;100590.53;5133301;27;8823;-76
2021/01/15 02:58:29;;;;;;;;;52.00;45.00;;;;;-0.26;75.90;100593.31;5143646;27;8852;-76
2021/01/15 03:01:30;;;;;;;;;51.67;45.00;;;;;-0.24;75.58;100600.09;5146706;27;8858;-76
2021/01/15 03:04:10;;;;;;;;;55.33;47.67;;;;;-0.20;74.08;100603.97;5143588;27;8900;-76
2021/01/15 03:07:07;;;;;;;;;50.33;48.00;;;;;-0.25;74.56;100605.81;5139821;27;8858;-76
2021/01/15 03:10:04;;;;;;;;;50.67;45.00;;;;;-0.43;75.90;100607.88;5129602;27;8852;-76
2021/01/15 03:13:02;;;;;;;;;46.33;41.33;;;;;-0.31;75.24;100613.94;5131593;27;8848;-76
2021/01/15 03:16:02;;;;;;;;;57.33;48.33;;;;;-0.37;75.67;100609.56;5127982;27;8896;-75
2021/01/15 03:19:00;;;;;;;;;62.33;48.67;;;;;-0.35;76.10;100615.53;5128505;27;9785;-76
2021/01/15 03:21:36;;;;;;;;;53.67;48.00;;;;;-0.41;76.21;100615.75;5129117;27;8835;-76
2021/01/15 03:24:32;;;;;;;;;56.33;46.00;;;;;-0.49;76.26;100616.22;5144554;27;8859;-76
2021/01/15 03:27:15;;;;;;;;;43.33;41.33;;;;;-0.26;76.51;100617.78;5130399;27;8864;-76
2021/01/15 03:30:20;;;;;;;;;43.00;41.33;;;;;-0.37;77.03;100614.97;5131769;27;8827;-76
2021/01/15 03:33:16;;;;;;;;;48.67;47.33;;;;;-0.48;76.61;100620.59;5130457;27;8860;-76
2021/01/15 03:36:11;;;;;;;;;42.33;42.33;;;;;-0.49;76.72;100617.06;5142045;27;8825;-76
2021/01/15 03:39:07;;;;;;;;;32.67;29.67;;;;;-0.57;76.88;100625.69;5140591;27;8815;-76
2021/01/15 03:41:34;;;;;;;;;45.67;43.67;;;;;-0.67;76.94;100626.41;5122931;27;8956;-76
2021/01/15 03:44:16;;;;;;;;;46.67;45.00;;;;;-0.47;76.84;100620.31;5127209;27;8821;-76
2021/01/15 03:47:11;;;;;;;;;51.33;45.33;;;;;-0.68;77.30;100615.81;5140108;27;8888;-76
2021/01/15 03:49:59;;;;;;;;;51.00;44.33;;;;;-0.58;77.53;100619.44;5142494;27;8855;-76
2021/01/15 03:52:54;;;;;;;;;49.67;46.00;;;;;-0.55;77.67;100623.50;5131000;27;8848;-76
2021/01/15 03:55:50;;;;;;;;;42.67;41.67;;;;;-0.56;77.55;100622.69;5142942;27;8858;-76
2021/01/15 03:58:45;;;;;;;;;45.00;44.33;;;;;-0.42;76.55;100619.56;5145546;27;8924;-76
2021/01/15 04:01:41;;;;;;;;;46.67;43.33;;;;;-0.44;77.38;100619.81;5144348;27;8838;-74
2021/01/15 04:04:31;;;;;;;;;44.67;40.33;;;;;-0.35;77.08;100612.81;5138219;27;8837;-75
2021/01/15 04:07:29;;;;;;;;;51.33;45.33;;;;;-0.21;76.60;100610.47;5132356;27;9560;-75
2021/01/15 04:09:56;;;;;;;;;44.67;43.67;;;;;-0.36;76.98;100622.06;5148491;27;8874;-75
2021/01/15 04:12:32;;;;;;;;;51.33;48.00;;;;;-0.40;76.66;100631.78;5132283;27;8881;-75
2021/01/15 04:15:15;;;;;;;;;44.33;44.33;;;;;-0.31;76.65;100623.97;5131706;27;8835;-75
2021/01/15 04:18:02;;;;;;;;;41.67;41.33;;;;;-0.24;76.78;100615.59;5148678;27;8825;-74
2021/01/15 04:20:58;;;;;;;;;48.33;45.33;;;;;-0.12;76.23;100616.25;5131405;27;8923;-76
2021/01/15 04:23:26;;;;;;;;;52.67;45.00;;;;;-0.57;76.36;100621.06;5130565;27;8822;-77
2021/01/15 04:26:21;;;;;;;;;35.33;35.33;;;;;-0.63;76.47;100622.09;5131931;27;8882;-76
2021/01/15 04:29:17;;;;;;;;;45.67;42.67;;;;;-0.44;76.68;100621.72;5137360;27;8962;-76
2021/01/15 04:32:13;;;;;;;;;46.67;43.67;;;;;-0.30;75.85;100633.78;5133154;27;8823;-76
2021/01/15 04:35:09;;;;;;;;;42.00;39.67;;;;;-0.24;76.40;100627.28;5145613;27;8827;-77
2021/01/15 04:37:36;;;;;;;;;43.67;43.67;;;;;-0.34;76.45;100630.75;5149235;27;8840;-75
2021/01/15 04:40:31;;;;;;;;;36.67;36.67;;;;;-0.27;75.70;100635.97;5147984;27;8825;-76
2021/01/15 04:43:01;;;;;;;;;40.00;37.00;;;;;-0.40;76.72;100628.25;5147345;27;8847;-76
2021/01/15 04:45:57;;;;;;;;;43.67;38.00;;;;;-0.37;76.76;100635.91;5146523;27;8833;-75
2021/01/15 04:48:55;;;;;;;;;55.00;46.33;;;;;-0.15;76.11;100628.47;5133483;27;8832;-75
2021/01/15 04:51:40;;;;;;;;;37.67;37.67;;;;;-0.24;75.68;100632.72;5141525;27;8892;-76
2021/01/15 04:54:34;;;;;;;;;24.33;22.00;;;;;-0.39;76.13;100635.31;5147575;27;8835;-76
2021/01/15 04:57:35;;;;;;;;;44.33;40.00;;;;;-0.18;75.64;100634.41;5134039;27;8870;-75
2021/01/15 05:00:30;;;;;;;;;48.67;46.67;;;;;-0.30;75.91;100622.91;5146392;27;9557;-75
2021/01/15 05:03:26;;;;;;;;;57.33;46.00;;;;;-0.10;75.35;100623.03;5145637;27;8859;-75
2021/01/15 05:06:29;;;;;;;;;45.33;41.00;;;;;-0.40;75.83;100620.91;5136104;27;8859;-76
2021/01/15 05:09:26;;;;;;;;;42.67;36.67;;;;;-0.39;75.46;100619.03;5132537;27;8813;-76
2021/01/15 05:12:27;;;;;;;;;34.67;34.67;;;;;-0.37;76.69;100617.69;5132265;27;8819;-76
2021/01/15 05:15:25;;;;;;;;;38.33;38.00;;;;;-0.32;76.20;100623.16;5134653;27;8833;-75
2021/01/15 05:18:20;;;;;;;;;39.67;39.67;;;;;-0.29;75.55;100619.13;5144710;27;8812;-77
2021/01/15 05:20:49;;;;;;;;;39.67;37.67;;;;;-0.34;75.44;100627.22;5146357;27;8830;-75
2021/01/15 05:23:44;;;;;;;;;40.33;38.67;;;;;-0.37;76.02;100625.84;5141468;27;8871;-75
2021/01/15 05:26:15;;;;;;;;;65.00;48.00;;;;;-0.39;76.49;100630.72;5145667;27;8827;-75
2021/01/15 05:29:10;;;;;;;;;43.00;39.67;;;;;-0.29;75.34;100624.56;5145680;27;9542;-75
2021/01/15 05:32:06;;;;;;;;;40.33;38.33;;;;;-0.42;75.51;100623.09;5144114;27;8818;-74
2021/01/15 05:34:34;;;;;;;;;40.67;35.67;;;;;-0.56;75.72;100632.75;5124315;27;8847;-75
2021/01/15 05:37:20;;;;;;;;;44.33;41.33;;;;;-0.42;76.06;100639.38;5145021;27;8833;-75
2021/01/15 05:39:48;;;;;;;;;41.67;35.67;;;;;-0.56;75.75;100624.59;5130858;27;8827;-75
2021/01/15 05:42:20;;;;;;;;;53.00;39.33;;;;;-0.46;76.08;100632.84;5142964;27;8918;-76
2021/01/15 05:44:49;;;;;;;;;39.67;38.33;;;;;-0.53;75.97;100636.88;5127252;27;8839;-74
2021/01/15 05:47:44;;;;;;;;;61.33;49.00;;;;;-0.43;75.70;100645.09;5149106;27;8896;-74
2021/01/15 05:50:40;;;;;;;;;41.67;36.67;;;;;-0.69;75.38;100644.88;5131210;27;9588;-72
2021/01/15 05:53:41;;;;;;;;;53.33;45.00;;;;;-0.60;76.15;100646.03;5135585;27;8833;-74
2021/01/15 05:56:46;;;;;;;;;31.00;31.00;;;;;-0.62;76.07;100650.88;5137741;27;9599;-74
2021/01/15 05:59:18;;;;;;;;;40.33;38.00;;;;;-0.43;75.45;100654.06;5146733;27;8833;-74
2021/01/15 06:02:07;;;;;;;;;48.33;45.00;;;;;-0.65;75.79;100651.41;5131140;27;8829;-73
2021/01/15 06:04:36;;;;;;;;;48.67;47.33;;;;;-0.46;75.89;100654.59;5146472;27;8853;-73
2021/01/15 06:07:32;;;;;;;;;45.00;36.00;;;;;-0.79;75.57;100655.63;5129823;27;9541;-73
2021/01/15 06:10:20;;;;;;;;;36.33;33.67;;;;;-0.63;74.73;100660.13;5142518;27;8909;-73
2021/01/15 06:13:38;;;;;;;;;47.33;45.00;;;;;-0.66;75.09;100660.63;5131810;27;8813;-72
2021/01/15 06:16:33;;;;;;;;;38.00;34.00;;;;;-0.79;75.67;100658.34;5143345;27;8848;-73
2021/01/15 06:19:15;;;;;;;;;42.67;37.00;;;;;-0.77;74.78;100658.88;5129719;27;8942;-73
2021/01/15 06:22:44;;;;;;;;;38.33;38.33;;;;;-0.66;75.08;100662.53;5145223;27;8857;-73
2021/01/15 06:26:07;;;;;;;;;44.33;39.33;;;;;-0.71;75.36;100673.34;5127835;27;8829;-72
2021/01/15 06:28:38;;;;;;;;;49.00;45.00;;;;;-0.72;74.90;100666.28;5145371;27;9588;-72
2021/01/15 06:32:03;;;;;;;;;47.00;45.00;;;;;-0.62;75.18;100678.06;5128425;27;8891;-72
2021/01/15 06:34:31;;;;;;;;;33.00;33.00;;;;;-0.53;74.67;100681.16;5118183;27;8845;-72
2021/01/15 06:37:01;;;;;;;;;36.33;36.00;;;;;-0.66;74.63;100684.28;5135557;27;8813;-72
2021/01/15 06:40:15;;;;;;;;;44.33;38.67;;;;;-0.75;75.12;100683.09;5143021;27;8811;-73
2021/01/15 06:42:46;;;;;;;;;52.00;47.75;;;;;-0.77;74.87;100690.66;5142841;27;8837;-74
2021/01/15 06:45:16;;;;;;;;;30.33;27.67;;;;;-0.62;75.15;100702.50;5143649;27;8953;-73
2021/01/15 06:47:46;;;;;;;;;35.33;33.67;;;;;-0.53;75.19;100704.78;5127960;27;9600;-74
2021/01/15 06:50:40;;;;;;;;;36.67;33.00;;;;;-0.55;75.43;100713.16;5143226;27;8855;-73
2021/01/15 06:53:22;;;;;;;;;32.33;32.00;;;;;-0.63;75.76;100716.34;5144623;27;8946;-73
2021/01/15 06:55:53;;;;;;;;;41.33;40.00;;;;;-0.66;75.45;100711.44;5142530;27;8831;-73
2021/01/15 06:58:37;;;;;;;;;38.33;37.00;;;;;-0.53;75.20;100718.38;5127537;27;8825;-73
2021/01/15 07:01:50;;;;;;;;;40.67;40.67;;;;;-0.51;75.66;100727.06;5140752;27;8835;-73
2021/01/15 07:04:28;;;;;;;;;39.33;34.00;;;;;-0.38;74.88;100734.81;5130089;27;8810;-73
2021/01/15 07:07:11;;;;;;;;;42.33;40.67;;;;;-0.63;74.80;100735.34;5143171;27;8799;-73
2021/01/15 07:09:45;;;;;;;;;42.67;41.67;;;;;-0.45;75.23;100732.31;5128221;27;8837;-73
2021/01/15 07:12:19;;;;;;;;;42.00;42.00;;;;;-0.42;75.06;100734.50;5109043;27;8829;-69
2021/01/15 07:14:54;;;;;;;;;47.67;43.33;;;;;-0.42;75.34;100737.22;5124617;27;8825;-70
2021/01/15 07:17:58;;;;;;;;;46.33;37.67;;;;;-0.33;74.80;100735.66;5139672;27;8831;-71
2021/01/15 07:20:35;;;;;;;;;43.00;38.33;;;;;-0.25;74.12;100745.25;5128290;27;8845;-71
2021/01/15 07:23:14;;;;;;;;;28.00;28.00;;;;;-0.44;74.94;100746.69;5140099;27;8896;-71
2021/01/15 07:25:50;;;;;;;;;42.00;40.00;;;;;-0.23;74.78;100751.28;5129991;27;8833;-71
2021/01/15 07:28:47;;;;;;;;;34.67;31.00;;;;;-0.40;75.57;100750.53;5136586;27;8857;-70
2021/01/15 07:31:30;;;;;;;;;56.33;42.00;;;;;-0.39;74.74;100746.75;5128587;27;8834;-70
2021/01/15 07:34:28;;;;;;;;;28.33;23.67;;;;;-0.13;74.58;100755.97;5142963;27;8870;-70
2021/01/15 07:36:55;;;;;;;;;48.00;45.00;;;;;-0.07;74.40;100760.38;5142281;27;8841;-70
2021/01/15 07:40:13;;;;;;;;;48.67;47.00;;;;;0.13;73.83;100746.13;5143258;27;8898;-70
2021/01/15 07:43:30;;;;;;;;;45.00;39.67;;;;;0.18;73.43;100751.59;5133163;27;8905;-71
2021/01/15 07:46:04;;;;;;;;;38.67;35.67;;;;;-0.08;73.56;100754.13;5144814;27;8852;-72
2021/01/15 07:49:00;;;;;;;;;39.00;38.33;;;;;0.02;74.03;100758.81;5141644;27;8840;-72
2021/01/15 07:52:09;;;;;;;;;43.00;38.33;;;;;-0.04;74.30;100751.69;5143402;27;8843;-71
2021/01/15 07:55:01;;;;;;;;;50.33;43.00;;;;;0.02;73.91;100747.94;5143878;27;8833;-70
2021/01/15 07:57:57;;;;;;;;;33.00;33.00;;;;;0.20;73.12;100761.13;5143216;27;8835;-71
2021/01/15 08:00:24;;;;;;;;;30.67;28.67;;;;;0.10;73.21;100761.06;5126282;27;8909;-71
2021/01/15 08:03:00;;;;;;;;;39.00;36.67;;;;;0.13;73.15;100763.25;5143725;27;8831;-71
2021/01/15 08:05:57;;;;;;;;;30.33;29.00;;;;;0.10;73.31;100761.06;5143109;27;8839;-70
2021/01/15 08:09:07;;;;;;;;;33.33;31.00;;;;;0.24;73.46;100765.00;5144006;27;8819;-72
2021/01/15 08:12:02;;;;;;;;;39.67;33.67;;;;;0.13;73.58;100759.72;5144237;27;8925;-71
2021/01/15 08:14:58;;;;;;;;;34.33;34.33;;;;;0.14;74.15;100767.59;5143623;27;8837;-71
2021/01/15 08:17:39;;;;;;;;;43.00;42.33;;;;;0.26;74.88;100762.00;5125669;27;8853;-71
2021/01/15 08:20:07;;;;;;;;;28.67;28.67;;;;;0.27;73.63;100761.72;5144562;27;8839;-70
2021/01/15 08:23:04;;;;;;;;;36.33;33.67;;;;;0.40;73.54;100760.47;5141022;27;9580;-70
2021/01/15 08:25:59;;;;;;;;;41.00;39.33;;;;;0.55;73.77;100765.19;5139360;27;8833;-70
2021/01/15 08:28:55;;;;;;;;;43.33;43.00;;;;;0.54;74.06;100761.66;5140556;27;9545;-71
2021/01/15 08:31:58;;;;;;;;;45.67;40.67;;;;;0.55;74.46;100763.28;5137397;27;8796;-70
2021/01/15 08:34:53;;;;;;;;;37.33;34.67;;;;;0.64;73.76;100758.19;5139344;27;8839;-71
2021/01/15 08:38:01;;;;;;;;;39.00;37.00;;;;;0.61;73.07;100757.88;5138801;27;9581;-70
2021/01/15 08:40:57;;;;;;;;;37.33;36.67;;;;;0.78;73.28;100761.25;5142504;27;8861;-72
2021/01/15 08:43:30;;;;;;;;;35.33;32.33;;;;;0.94;73.13;100762.16;5142397;27;8837;-70
2021/01/15 08:46:06;;;;;;;;;46.67;39.33;;;;;1.03;72.85;100763.28;5142158;27;8822;-71
2021/01/15 08:48:49;;;;;;;;;43.33;35.00;;;;;1.04;72.89;100764.91;5132644;27;8951;-70
2021/01/15 08:51:20;;;;;;;;;35.33;34.00;;;;;1.12;72.91;100758.94;5117297;27;8847;-71
2021/01/15 08:54:06;;;;;;;;;31.67;31.67;;;;;1.25;72.54;100760.38;5138589;27;8839;-70
2021/01/15 08:56:47;;;;;;;;;36.33;36.33;;;;;1.22;72.10;100756.25;5144122;27;8921;-70
2021/01/15 08:59:44;;;;;;;;;35.33;35.33;;;;;1.31;72.24;100756.59;5146112;27;8873;-70
2021/01/15 09:02:13;;;;;;;;;40.00;34.33;;;;;1.42;72.05;100760.97;5144059;27;8833;-70
2021/01/15 09:05:19;;;;;;;;;50.33;45.33;;;;;0.95;73.86;100747.44;5140002;27;8833;-70
2021/01/15 09:08:18;;;;;;;;;37.00;37.00;;;;;1.07;74.08;100759.78;5131546;27;8835;-70
2021/01/15 09:11:14;;;;;;;;;30.67;24.67;;;;;1.25;73.59;100755.75;5147189;27;8953;-69
2021/01/15 09:14:12;;;;;;;;;36.33;34.00;;;;;1.45;72.77;100748.69;5133738;27;8819;-69
2021/01/15 09:17:08;;;;;;;;;33.00;32.00;;;;;1.72;72.19;100743.03;5146594;27;9594;-69
2021/01/15 09:20:04;;;;;;;;;25.67;24.33;;;;;1.53;72.78;100742.72;5145509;27;8860;-69
2021/01/15 09:23:00;;;;;;;;;35.33;35.00;;;;;1.80;71.92;100734.31;5147300;27;8953;-70
2021/01/15 09:25:57;;;;;;;;;43.67;38.33;;;;;2.13;71.52;100733.78;5132799;27;8918;-70
2021/01/15 09:28:25;;;;;;;;;40.67;37.33;;;;;2.19;71.77;100731.88;5144248;27;9007;-69
2021/01/15 09:31:22;;;;;;;;;36.67;35.00;;;;;2.21;70.68;100732.41;5145179;27;8855;-69
2021/01/15 09:33:58;;;;;;;;;35.33;26.67;;;;;2.33;70.43;100732.94;5142425;27;8823;-70
2021/01/15 09:36:56;;;;;;;;;26.00;25.33;;;;;2.47;70.05;100736.75;5144380;27;8855;-69
2021/01/15 09:39:26;;;;;;;;;40.00;39.00;;;;;2.50;70.13;100738.94;5129681;27;8839;-70
2021/01/15 09:41:56;;;;;;;;;33.00;31.33;;;;;2.53;69.06;100739.47;5124368;27;8841;-70
2021/01/15 09:44:28;;;;;;;;;23.00;23.00;;;;;2.40;70.12;100728.03;5145031;27;8845;-70
2021/01/15 09:47:17;;;;;;;;;34.67;34.67;;;;;2.70;69.41;100726.34;5145515;27;11481;-69
2021/01/15 09:50:13;;;;;;;;;22.67;20.67;;;;;2.45;69.35;100730.75;5127540;27;11475;-69
2021/01/15 09:53:09;;;;;;;;;20.33;20.33;;;;;2.31;69.06;100724.22;5145429;27;11477;-70
2021/01/15 09:56:04;;;;;;;;;38.00;35.33;;;;;2.25;69.58;100717.13;5145915;27;8846;-69
2021/01/15 09:59:03;;;;;;;;;30.00;29.00;;;;;2.14;70.63;100710.84;5131557;27;9017;-69
2021/01/15 10:01:59;;;;;;;;;38.33;35.00;;;;;2.01;70.97;100707.88;5143755;27;9556;-69
2021/01/15 10:04:54;;;;;;;;;32.67;32.67;;;;;1.93;70.80;100707.34;5141543;27;8855;-69
2021/01/15 10:07:23;;;;;;;;;34.00;34.00;;;;;2.05;71.26;100703.50;5130487;27;8883;-69
2021/01/15 10:09:59;;;;;;;;;29.67;28.00;;;;;2.11;70.79;100696.97;5144812;27;8837;-69
2021/01/15 10:12:26;;;;;;;;;22.00;20.67;;;;;1.89;70.49;100698.06;5144585;27;8831;-69
2021/01/15 10:15:22;;;;;;;;;31.33;30.00;;;;;2.16;70.30;100699.69;5144317;27;8874;-69
2021/01/15 10:17:49;;;;;;;;;27.33;27.33;;;;;2.06;70.15;100705.13;5144219;27;9003;-68
2021/01/15 10:20:45;;;;;;;;;16.00;16.00;;;;;1.48;71.08;100710.03;5133390;27;8857;-68
2021/01/15 10:23:41;;;;;;;;;28.00;28.00;;;;;1.78;70.58;100703.78;5133114;27;8825;-70
2021/01/15 10:26:38;;;;;;;;;20.00;20.00;;;;;1.92;71.37;100700.25;5142985;27;9581;-69
2021/01/15 10:29:28;;;;;;;;;25.67;25.00;;;;;1.93;70.96;100693.69;5131056;27;8923;-69
2021/01/15 10:32:09;;;;;;;;;28.33;22.33;;;;;2.15;70.14;100696.16;5141548;27;9616;-69
2021/01/15 10:34:37;;;;;;;;;25.00;22.67;;;;;2.17;70.09;100693.13;5140338;27;8837;-70
2021/01/15 10:37:35;;;;;;;;;33.33;33.33;;;;;2.26;70.41;100688.75;5142446;27;8958;-70
2021/01/15 10:40:30;;;;;;;;;39.33;37.00;;;;;2.51;69.91;100683.22;5146851;27;8935;-69
2021/01/15 10:43:12;;;;;;;;;13.33;13.33;;;;;2.49;68.95;100688.16;5141899;27;8890;-69
2021/01/15 10:45:40;;;;;;;;;25.00;25.00;;;;;2.39;68.06;100684.66;5146090;27;8849;-70
2021/01/15 10:48:35;;;;;;;;;31.33;30.33;;;;;2.35;69.17;100691.72;5142066;27;9042;-69
2021/01/15 10:51:31;;;;;;;;;29.67;28.33;;;;;2.25;69.02;100678.94;5143154;27;8829;-70
2021/01/15 10:54:27;;;;;;;;;26.00;26.00;;;;;2.25;68.70;100680.84;5141122;27;8825;-70
2021/01/15 10:57:22;;;;;;;;;31.00;29.00;;;;;2.25;69.08;100678.94;5143187;27;8815;-70
2021/01/15 11:00:04;;;;;;;;;36.00;34.33;;;;;2.27;69.39;100674.00;5140814;27;8851;-69
2021/01/15 11:02:32;;;;;;;;;36.67;33.00;;;;;2.25;68.68;100665.28;5145444;27;8833;-69
2021/01/15 11:05:27;;;;;;;;;31.67;29.33;;;;;2.16;68.96;100672.41;5143949;27;8941;-69
2021/01/15 11:08:23;;;;;;;;;29.00;28.00;;;;;2.38;69.29;100667.44;5142313;27;8825;-69
2021/01/15 11:11:18;;;;;;;;;29.33;29.00;;;;;2.34;69.07;100669.09;5141101;27;8914;-69
2021/01/15 11:14:05;;;;;;;;;26.00;26.00;;;;;2.17;68.98;100672.13;5131762;27;8870;-68
2021/01/15 11:16:33;;;;;;;;;29.00;29.00;;;;;2.28;69.31;100670.19;5145472;27;8830;-69
2021/01/15 11:19:29;;;;;;;;;23.00;23.00;;;;;2.05;68.95;100668.03;5126557;27;8835;-68
2021/01/15 11:21:58;;;;;;;;;24.33;20.33;;;;;2.23;68.41;100664.75;5144043;27;8856;-69
2021/01/15 11:24:54;;;;;;;;;31.33;28.67;;;;;2.17;69.60;100653.03;5143062;27;8839;-69
2021/01/15 11:27:21;;;;;;;;;32.33;30.33;;;;;2.05;69.14;100663.41;5142531;27;9545;-70
2021/01/15 11:30:04;;;;;;;;;34.67;32.33;;;;;2.05;69.53;100662.59;5142674;27;8831;-69
2021/01/15 11:32:40;;;;;;;;;32.00;30.00;;;;;2.07;69.00;100655.78;5125398;27;8823;-68
2021/01/15 11:35:35;;;;;;;;;28.00;28.00;;;;;1.91;69.93;100654.94;5132639;27;8863;-68
2021/01/15 11:38:31;;;;;;;;;31.33;29.67;;;;;2.18;69.46;100659.31;5142782;27;8817;-69
2021/01/15 11:41:00;;;;;;;;;25.33;22.33;;;;;1.87;70.05;100656.59;5145114;27;8856;-69
2021/01/15 11:43:56;;;;;;;;;26.00;25.33;;;;;2.07;69.58;100657.66;5141147;27;8860;-69
2021/01/15 11:46:51;;;;;;;;;29.00;29.00;;;;;2.02;69.76;100652.22;5125790;27;8935;-69
2021/01/15 11:49:28;;;;;;;;;26.33;26.33;;;;;2.09;69.16;100655.50;5139135;27;8871;-70
2021/01/15 11:52:12;;;;;;;;;31.00;30.67;;;;;2.24;69.25;100652.75;5144030;27;9560;-69
2021/01/15 11:55:08;;;;;;;;;28.33;25.67;;;;;2.20;69.70;100657.09;5114878;27;9583;-69
2021/01/15 11:57:55;;;;;;;;;31.00;28.67;;;;;2.32;69.24;100657.63;5144519;27;8898;-68
2021/01/15 12:00:22;;;;;;;;;32.67;28.67;;;;;2.38;68.84;100664.72;5140223;27;8872;-69
2021/01/15 12:02:50;;;;;;;;;31.33;26.33;;;;;3.01;76.31;100654.09;5143216;27;8839;-70
2021/01/15 12:05:49;;;;;;;;;37.00;37.00;;;;;4.99;81.50;100650.63;5142717;27;8855;-70
2021/01/15 12:08:45;;;;;;;;;26.00;26.00;;;;;5.32;77.04;100650.72;5136497;27;8839;-69
2021/01/15 12:11:12;;;;;;;;;27.25;27.25;;;;;6.05;78.01;100647.34;5141499;27;11516;-69
2021/01/15 12:13:40;;;;;;;;;37.00;29.75;;;;;6.00;74.26;100650.22;5136975;27;11513;-71
2021/01/15 12:16:36;;;;;;;;;35.00;32.50;;;;;5.39;65.82;100654.72;5138387;27;11573;-70
2021/01/15 12:19:10;;;;;;;;;32.25;32.00;;;;;6.00;71.38;100656.53;5142264;27;12227;-71
2021/01/15 12:21:38;;;;;;;;;28.50;28.50;;;;;5.92;68.73;100657.22;5126066;27;11512;-70
2021/01/15 12:24:28;;;;;;;;;27.25;25.50;;;;;5.27;63.37;100660.63;5146860;27;11496;-71
2021/01/15 12:27:09;;;;;;;;;23.75;23.75;;;;;5.46;67.40;100662.59;5145576;27;11520;-70
2021/01/15 12:29:41;;;;;;;;;27.00;25.50;;;;;5.62;69.44;100657.69;5141583;27;12276;-70
2021/01/15 12:32:37;;;;;;;;;28.50;26.50;;;;;5.77;70.95;100658.25;5145741;27;11528;-69
2021/01/15 12:35:22;;;;;;;;;29.00;29.00;;;;;5.84;65.77;100671.59;5132496;27;11518;-70
2021/01/15 12:38:08;;;;;;;;;23.75;23.50;;;;;5.16;62.60;100667.38;5134539;27;12236;-69
2021/01/15 12:41:05;;;;;;;;;27.00;26.75;;;;;5.63;64.04;100673.84;5134470;27;11506;-71
2021/01/15 12:43:32;;;;;;;;;23.50;23.50;;;;;5.58;61.55;100673.91;5128605;27;11517;-70
2021/01/15 12:46:13;;;;;;;;;26.00;23.75;;;;;5.20;65.00;100678.56;5144859;27;11486;-70
2021/01/15 12:49:09;;;;;;;;;35.50;32.75;;;;;5.36;65.42;100679.97;5145371;27;11498;-71
2021/01/15 12:51:36;;;;;;;;;30.00;30.00;;;;;5.54;66.61;100679.19;5145806;27;11610;-70
2021/01/15 12:54:32;;;;;;;;;37.00;30.00;;;;;5.17;64.43;100676.44;5146343;27;11575;-71
2021/01/15 12:57:28;;;;;;;;;29.00;29.00;;;;;4.35;60.27;100674.66;5137039;27;11548;-70
2021/01/15 13:00:26;;;;;;;;;29.75;29.75;;;;;3.70;62.65;100678.81;5133305;27;12360;-70